Maloca, Brazil
Current Conditions -  °F | °C
As of 12:00 PM on Monday 24 Nov 2014 (Local Time) from SBSN Reporting Station
Scattered Clouds Scattered Clouds  
Wind Chill: 90°   Ceiling: Unl
Heat Index: 98°   Visibility: 6mi
Dew Point: 73°   Wind: 17mph
Humidity: 59%   Direction: 90°E
Pressure: 29.85"   Gusts: NA
Location:  0.64°N, 55.97°W
Report Text: SBSN 241500Z 09015KT 9999 SCT020 32/23 Q1011
Loading
Personal Weather Stations






























Interactive Weather Map New forecast layout! Learn more

10-Day Weather Forecast

Advertisements
Track Severe Weather on mobile